sensor_id;sensor_type;location;lat;lon;timestamp;P1;durP1;ratioP1;P2;durP2;ratioP2
13704;SDS011;6924;52.122;9.952;2023-08-06T00:00:27;1.83;;;1.73;;
13704;SDS011;6924;52.122;9.952;2023-08-06T00:02:54;1.70;;;1.60;;
13704;SDS011;6924;52.122;9.952;2023-08-06T00:05:20;4.20;;;1.70;;
13704;SDS011;6924;52.122;9.952;2023-08-06T00:07:48;3.30;;;2.00;;
13704;SDS011;6924;52.122;9.952;2023-08-06T00:10:16;2.00;;;1.80;;
13704;SDS011;6924;52.122;9.952;2023-08-06T00:12:43;3.27;;;1.80;;
13704;SDS011;6924;52.122;9.952;2023-08-06T00:15:10;1.83;;;1.73;;
13704;SDS011;6924;52.122;9.952;2023-08-06T00:17:36;1.60;;;1.50;;
13704;SDS011;6924;52.122;9.952;2023-08-06T00:20:03;4.07;;;2.00;;
13704;SDS011;6924;52.122;9.952;2023-08-06T00:22:31;4.07;;;1.67;;
13704;SDS011;6924;52.122;9.952;2023-08-06T00:24:59;2.43;;;2.00;;
13704;SDS011;6924;52.122;9.952;2023-08-06T00:27:26;2.37;;;2.20;;
13704;SDS011;6924;52.122;9.952;2023-08-06T00:29:52;3.33;;;2.73;;
13704;SDS011;6924;52.122;9.952;2023-08-06T00:32:19;6.20;;;2.23;;
13704;SDS011;6924;52.122;9.952;2023-08-06T00:34:46;1.73;;;1.63;;
13704;SDS011;6924;52.122;9.952;2023-08-06T00:37:14;3.80;;;2.00;;
13704;SDS011;6924;52.122;9.952;2023-08-06T00:39:41;3.20;;;2.00;;
13704;SDS011;6924;52.122;9.952;2023-08-06T00:42:08;4.17;;;1.60;;
13704;SDS011;6924;52.122;9.952;2023-08-06T00:44:35;1.60;;;1.50;;
13704;SDS011;6924;52.122;9.952;2023-08-06T00:47:02;13.43;;;3.50;;
13704;SDS011;6924;52.122;9.952;2023-08-06T00:49:29;1.90;;;1.60;;
13704;SDS011;6924;52.122;9.952;2023-08-06T00:51:56;2.00;;;1.80;;
13704;SDS011;6924;52.122;9.952;2023-08-06T00:54:23;1.70;;;1.60;;
13704;SDS011;6924;52.122;9.952;2023-08-06T00:56:51;5.07;;;1.67;;
13704;SDS011;6924;52.122;9.952;2023-08-06T00:59:20;2.30;;;1.40;;
13704;SDS011;6924;52.122;9.952;2023-08-06T01:01:46;1.97;;;1.73;;
13704;SDS011;6924;52.122;9.952;2023-08-06T01:04:15;2.13;;;1.50;;
13704;SDS011;6924;52.122;9.952;2023-08-06T01:06:43;2.27;;;2.00;;
13704;SDS011;6924;52.122;9.952;2023-08-06T01:09:16;5.10;;;1.97;;
13704;SDS011;6924;52.122;9.952;2023-08-06T01:11:54;5.03;;;2.00;;
13704;SDS011;6924;52.122;9.952;2023-08-06T01:14:35;14.67;;;2.10;;
13704;SDS011;6924;52.122;9.952;2023-08-06T01:17:10;3.57;;;2.37;;
13704;SDS011;6924;52.122;9.952;2023-08-06T01:19:38;6.33;;;1.90;;
13704;SDS011;6924;52.122;9.952;2023-08-06T01:22:06;2.30;;;2.10;;
13704;SDS011;6924;52.122;9.952;2023-08-06T01:24:33;3.60;;;1.57;;
13704;SDS011;6924;52.122;9.952;2023-08-06T01:27:01;2.73;;;2.13;;
13704;SDS011;6924;52.122;9.952;2023-08-06T01:29:34;1.73;;;1.63;;
13704;SDS011;6924;52.122;9.952;2023-08-06T01:32:04;1.97;;;1.83;;
13704;SDS011;6924;52.122;9.952;2023-08-06T01:34:33;6.70;;;2.00;;
13704;SDS011;6924;52.122;9.952;2023-08-06T01:37:00;5.77;;;1.80;;
13704;SDS011;6924;52.122;9.952;2023-08-06T01:39:29;4.57;;;2.07;;
13704;SDS011;6924;52.122;9.952;2023-08-06T01:41:59;2.20;;;2.00;;
13704;SDS011;6924;52.122;9.952;2023-08-06T01:44:26;5.70;;;1.57;;
13704;SDS011;6924;52.122;9.952;2023-08-06T01:46:53;3.93;;;1.97;;
13704;SDS011;6924;52.122;9.952;2023-08-06T01:49:19;2.37;;;1.83;;
13704;SDS011;6924;52.122;9.952;2023-08-06T01:51:46;2.10;;;1.77;;
13704;SDS011;6924;52.122;9.952;2023-08-06T01:54:12;2.63;;;2.10;;
13704;SDS011;6924;52.122;9.952;2023-08-06T01:56:40;2.27;;;2.07;;
13704;SDS011;6924;52.122;9.952;2023-08-06T01:59:06;2.60;;;1.93;;
13704;SDS011;6924;52.122;9.952;2023-08-06T02:01:33;1.67;;;1.57;;
13704;SDS011;6924;52.122;9.952;2023-08-06T02:04:00;3.87;;;1.83;;
13704;SDS011;6924;52.122;9.952;2023-08-06T02:06:26;2.27;;;2.00;;
13704;SDS011;6924;52.122;9.952;2023-08-06T02:08:53;7.67;;;2.80;;
13704;SDS011;6924;52.122;9.952;2023-08-06T02:11:19;7.37;;;2.23;;
13704;SDS011;6924;52.122;9.952;2023-08-06T02:13:47;2.63;;;2.43;;
13704;SDS011;6924;52.122;9.952;2023-08-06T02:16:13;8.57;;;1.87;;
13704;SDS011;6924;52.122;9.952;2023-08-06T02:18:40;2.70;;;2.20;;
13704;SDS011;6924;52.122;9.952;2023-08-06T02:21:06;2.37;;;2.10;;
13704;SDS011;6924;52.122;9.952;2023-08-06T02:23:33;4.33;;;2.87;;
13704;SDS011;6924;52.122;9.952;2023-08-06T02:25:59;2.70;;;2.47;;
13704;SDS011;6924;52.122;9.952;2023-08-06T02:28:27;5.47;;;2.03;;
13704;SDS011;6924;52.122;9.952;2023-08-06T02:30:55;4.07;;;2.57;;
13704;SDS011;6924;52.122;9.952;2023-08-06T02:33:22;3.77;;;2.33;;
13704;SDS011;6924;52.122;9.952;2023-08-06T02:35:48;2.67;;;1.83;;
13704;SDS011;6924;52.122;9.952;2023-08-06T02:38:15;3.73;;;2.27;;
13704;SDS011;6924;52.122;9.952;2023-08-06T02:40:44;2.33;;;1.70;;
13704;SDS011;6924;52.122;9.952;2023-08-06T02:43:11;2.70;;;1.80;;
13704;SDS011;6924;52.122;9.952;2023-08-06T02:45:38;2.97;;;2.17;;
13704;SDS011;6924;52.122;9.952;2023-08-06T02:48:06;2.50;;;1.87;;
13704;SDS011;6924;52.122;9.952;2023-08-06T02:50:37;3.67;;;2.10;;
13704;SDS011;6924;52.122;9.952;2023-08-06T02:53:04;2.97;;;2.30;;
13704;SDS011;6924;52.122;9.952;2023-08-06T02:55:30;2.57;;;1.60;;
13704;SDS011;6924;52.122;9.952;2023-08-06T02:57:57;1.63;;;1.53;;
13704;SDS011;6924;52.122;9.952;2023-08-06T03:00:23;3.23;;;1.90;;
13704;SDS011;6924;52.122;9.952;2023-08-06T03:02:49;2.80;;;1.70;;
13704;SDS011;6924;52.122;9.952;2023-08-06T03:05:17;2.60;;;2.40;;
13704;SDS011;6924;52.122;9.952;2023-08-06T03:07:44;2.43;;;2.23;;
13704;SDS011;6924;52.122;9.952;2023-08-06T03:10:10;5.87;;;2.70;;
13704;SDS011;6924;52.122;9.952;2023-08-06T03:12:38;2.47;;;1.90;;
13704;SDS011;6924;52.122;9.952;2023-08-06T03:15:05;2.83;;;2.63;;
13704;SDS011;6924;52.122;9.952;2023-08-06T03:17:32;3.17;;;1.93;;
13704;SDS011;6924;52.122;9.952;2023-08-06T03:19:58;3.77;;;2.40;;
13704;SDS011;6924;52.122;9.952;2023-08-06T03:22:26;2.83;;;2.63;;
13704;SDS011;6924;52.122;9.952;2023-08-06T03:24:53;6.57;;;2.53;;
13704;SDS011;6924;52.122;9.952;2023-08-06T03:27:19;4.47;;;2.63;;
13704;SDS011;6924;52.122;9.952;2023-08-06T03:29:48;5.00;;;2.33;;
13704;SDS011;6924;52.122;9.952;2023-08-06T03:32:15;7.07;;;2.60;;
13704;SDS011;6924;52.122;9.952;2023-08-06T03:34:41;9.10;;;2.40;;
13704;SDS011;6924;52.122;9.952;2023-08-06T03:37:08;7.20;;;2.90;;
13704;SDS011;6924;52.122;9.952;2023-08-06T03:39:35;3.97;;;2.70;;
13704;SDS011;6924;52.122;9.952;2023-08-06T03:42:02;5.10;;;2.43;;
13704;SDS011;6924;52.122;9.952;2023-08-06T03:44:29;4.87;;;2.30;;
13704;SDS011;6924;52.122;9.952;2023-08-06T03:46:55;2.47;;;1.77;;
13704;SDS011;6924;52.122;9.952;2023-08-06T03:49:22;3.53;;;2.30;;
13704;SDS011;6924;52.122;9.952;2023-08-06T03:51:48;4.47;;;2.07;;
13704;SDS011;6924;52.122;9.952;2023-08-06T03:54:15;3.13;;;1.87;;
13704;SDS011;6924;52.122;9.952;2023-08-06T03:56:43;5.53;;;1.70;;
13704;SDS011;6924;52.122;9.952;2023-08-06T03:59:09;2.67;;;1.87;;
13704;SDS011;6924;52.122;9.952;2023-08-06T04:01:36;13.30;;;2.50;;
13704;SDS011;6924;52.122;9.952;2023-08-06T04:04:02;5.93;;;2.87;;
13704;SDS011;6924;52.122;9.952;2023-08-06T04:06:29;5.27;;;2.13;;
13704;SDS011;6924;52.122;9.952;2023-08-06T04:08:55;3.47;;;2.20;;
13704;SDS011;6924;52.122;9.952;2023-08-06T04:11:22;9.87;;;3.13;;
13704;SDS011;6924;52.122;9.952;2023-08-06T04:13:50;13.53;;;2.90;;
13704;SDS011;6924;52.122;9.952;2023-08-06T04:16:16;3.03;;;2.27;;
13704;SDS011;6924;52.122;9.952;2023-08-06T04:18:43;4.13;;;2.60;;
13704;SDS011;6924;52.122;9.952;2023-08-06T04:21:10;4.10;;;2.47;;
13704;SDS011;6924;52.122;9.952;2023-08-06T04:23:37;3.97;;;2.90;;
13704;SDS011;6924;52.122;9.952;2023-08-06T04:26:03;6.93;;;3.23;;
13704;SDS011;6924;52.122;9.952;2023-08-06T04:28:30;6.00;;;2.67;;
13704;SDS011;6924;52.122;9.952;2023-08-06T04:30:58;2.90;;;2.63;;
13704;SDS011;6924;52.122;9.952;2023-08-06T04:33:25;5.73;;;2.80;;
13704;SDS011;6924;52.122;9.952;2023-08-06T04:35:53;3.97;;;3.20;;
13704;SDS011;6924;52.122;9.952;2023-08-06T04:38:20;3.47;;;3.20;;
13704;SDS011;6924;52.122;9.952;2023-08-06T04:40:47;3.57;;;3.23;;
13704;SDS011;6924;52.122;9.952;2023-08-06T04:43:13;5.20;;;3.07;;
13704;SDS011;6924;52.122;9.952;2023-08-06T04:45:45;4.23;;;2.70;;
13704;SDS011;6924;52.122;9.952;2023-08-06T04:48:13;3.83;;;3.03;;
13704;SDS011;6924;52.122;9.952;2023-08-06T04:50:42;2.60;;;2.40;;
13704;SDS011;6924;52.122;9.952;2023-08-06T04:53:09;2.87;;;2.67;;
13704;SDS011;6924;52.122;9.952;2023-08-06T04:55:36;4.23;;;3.33;;
13704;SDS011;6924;52.122;9.952;2023-08-06T04:58:03;4.47;;;2.57;;
13704;SDS011;6924;52.122;9.952;2023-08-06T05:00:29;5.47;;;2.57;;
13704;SDS011;6924;52.122;9.952;2023-08-06T05:02:56;3.93;;;3.53;;
13704;SDS011;6924;52.122;9.952;2023-08-06T05:05:23;4.67;;;2.83;;
13704;SDS011;6924;52.122;9.952;2023-08-06T05:07:50;3.00;;;2.80;;
13704;SDS011;6924;52.122;9.952;2023-08-06T05:10:17;3.43;;;2.33;;
13704;SDS011;6924;52.122;9.952;2023-08-06T05:12:43;6.50;;;3.30;;
13704;SDS011;6924;52.122;9.952;2023-08-06T05:15:09;3.23;;;2.90;;
13704;SDS011;6924;52.122;9.952;2023-08-06T05:17:36;6.10;;;2.60;;
13704;SDS011;6924;52.122;9.952;2023-08-06T05:20:03;4.60;;;4.20;;
13704;SDS011;6924;52.122;9.952;2023-08-06T05:22:31;3.53;;;2.90;;
13704;SDS011;6924;52.122;9.952;2023-08-06T05:24:57;3.13;;;2.73;;
13704;SDS011;6924;52.122;9.952;2023-08-06T05:27:24;3.37;;;3.17;;
13704;SDS011;6924;52.122;9.952;2023-08-06T05:29:54;7.27;;;3.00;;
13704;SDS011;6924;52.122;9.952;2023-08-06T05:32:21;3.00;;;2.70;;
13704;SDS011;6924;52.122;9.952;2023-08-06T05:34:47;3.60;;;2.73;;
13704;SDS011;6924;52.122;9.952;2023-08-06T05:37:14;4.97;;;3.20;;
13704;SDS011;6924;52.122;9.952;2023-08-06T05:39:42;3.70;;;3.40;;
13704;SDS011;6924;52.122;9.952;2023-08-06T05:42:08;2.70;;;2.50;;
13704;SDS011;6924;52.122;9.952;2023-08-06T05:44:35;4.10;;;3.13;;
13704;SDS011;6924;52.122;9.952;2023-08-06T05:47:01;4.67;;;3.20;;
13704;SDS011;6924;52.122;9.952;2023-08-06T05:49:28;4.23;;;3.10;;
13704;SDS011;6924;52.122;9.952;2023-08-06T05:51:54;3.17;;;2.93;;
13704;SDS011;6924;52.122;9.952;2023-08-06T05:54:21;4.70;;;3.53;;
13704;SDS011;6924;52.122;9.952;2023-08-06T05:56:49;3.17;;;2.97;;
13704;SDS011;6924;52.122;9.952;2023-08-06T05:59:15;4.03;;;3.73;;
13704;SDS011;6924;52.122;9.952;2023-08-06T06:01:42;4.03;;;3.40;;
13704;SDS011;6924;52.122;9.952;2023-08-06T06:04:08;6.50;;;3.57;;
13704;SDS011;6924;52.122;9.952;2023-08-06T06:06:35;3.47;;;3.13;;
13704;SDS011;6924;52.122;9.952;2023-08-06T06:09:01;3.97;;;3.13;;
13704;SDS011;6924;52.122;9.952;2023-08-06T06:11:28;3.90;;;3.47;;
13704;SDS011;6924;52.122;9.952;2023-08-06T06:13:55;4.50;;;2.83;;
13704;SDS011;6924;52.122;9.952;2023-08-06T06:16:22;4.13;;;2.80;;
13704;SDS011;6924;52.122;9.952;2023-08-06T06:18:48;2.60;;;2.40;;
13704;SDS011;6924;52.122;9.952;2023-08-06T06:21:15;4.23;;;2.70;;
13704;SDS011;6924;52.122;9.952;2023-08-06T06:23:41;2.23;;;2.13;;
13704;SDS011;6924;52.122;9.952;2023-08-06T06:26:08;2.73;;;2.53;;
13704;SDS011;6924;52.122;9.952;2023-08-06T06:28:35;2.80;;;2.60;;
13704;SDS011;6924;52.122;9.952;2023-08-06T06:31:02;3.03;;;2.83;;
13704;SDS011;6924;52.122;9.952;2023-08-06T06:33:29;2.87;;;2.63;;
13704;SDS011;6924;52.122;9.952;2023-08-06T06:35:56;2.40;;;2.30;;
13704;SDS011;6924;52.122;9.952;2023-08-06T06:38:22;3.43;;;3.10;;
13704;SDS011;6924;52.122;9.952;2023-08-06T06:40:53;2.50;;;2.40;;
13704;SDS011;6924;52.122;9.952;2023-08-06T06:43:19;3.33;;;2.40;;
13704;SDS011;6924;52.122;9.952;2023-08-06T06:45:46;2.43;;;2.23;;
13704;SDS011;6924;52.122;9.952;2023-08-06T06:48:14;3.70;;;2.10;;
13704;SDS011;6924;52.122;9.952;2023-08-06T06:50:41;2.20;;;2.10;;
13704;SDS011;6924;52.122;9.952;2023-08-06T06:53:07;2.00;;;1.90;;
13704;SDS011;6924;52.122;9.952;2023-08-06T06:55:34;1.90;;;1.80;;
13704;SDS011;6924;52.122;9.952;2023-08-06T06:58:00;7.03;;;2.10;;
13704;SDS011;6924;52.122;9.952;2023-08-06T07:00:27;2.80;;;1.77;;
13704;SDS011;6924;52.122;9.952;2023-08-06T07:02:53;2.90;;;2.30;;
13704;SDS011;6924;52.122;9.952;2023-08-06T07:05:21;1.70;;;1.60;;
13704;SDS011;6924;52.122;9.952;2023-08-06T07:07:47;2.60;;;2.40;;
13704;SDS011;6924;52.122;9.952;2023-08-06T07:10:14;3.17;;;1.83;;
13704;SDS011;6924;52.122;9.952;2023-08-06T07:12:41;7.23;;;1.77;;
13704;SDS011;6924;52.122;9.952;2023-08-06T07:15:07;1.93;;;1.83;;
13704;SDS011;6924;52.122;9.952;2023-08-06T07:17:35;1.43;;;1.33;;
13704;SDS011;6924;52.122;9.952;2023-08-06T07:20:01;1.23;;;1.20;;
13704;SDS011;6924;52.122;9.952;2023-08-06T07:22:30;3.00;;;1.63;;
13704;SDS011;6924;52.122;9.952;2023-08-06T07:24:57;2.50;;;1.60;;
13704;SDS011;6924;52.122;9.952;2023-08-06T07:27:23;1.77;;;1.67;;
13704;SDS011;6924;52.122;9.952;2023-08-06T07:29:51;1.60;;;1.50;;
13704;SDS011;6924;52.122;9.952;2023-08-06T07:32:17;1.50;;;1.33;;
13704;SDS011;6924;52.122;9.952;2023-08-06T07:34:44;2.93;;;1.60;;
13704;SDS011;6924;52.122;9.952;2023-08-06T07:37:10;1.43;;;1.43;;
13704;SDS011;6924;52.122;9.952;2023-08-06T07:39:38;1.50;;;1.40;;
13704;SDS011;6924;52.122;9.952;2023-08-06T07:42:06;1.40;;;1.30;;
13704;SDS011;6924;52.122;9.952;2023-08-06T07:44:33;1.67;;;1.30;;
13704;SDS011;6924;52.122;9.952;2023-08-06T07:46:59;1.17;;;1.17;;
13704;SDS011;6924;52.122;9.952;2023-08-06T07:49:26;2.27;;;1.87;;
13704;SDS011;6924;52.122;9.952;2023-08-06T07:51:52;1.83;;;1.50;;
13704;SDS011;6924;52.122;9.952;2023-08-06T07:54:19;4.83;;;1.40;;
13704;SDS011;6924;52.122;9.952;2023-08-06T07:56:47;5.33;;;1.63;;
13704;SDS011;6924;52.122;9.952;2023-08-06T07:59:13;1.37;;;1.27;;
13704;SDS011;6924;52.122;9.952;2023-08-06T08:01:40;1.70;;;1.60;;
13704;SDS011;6924;52.122;9.952;2023-08-06T08:04:06;2.77;;;1.47;;
13704;SDS011;6924;52.122;9.952;2023-08-06T08:06:33;3.50;;;1.50;;
13704;SDS011;6924;52.122;9.952;2023-08-06T08:08:59;1.37;;;1.27;;
13704;SDS011;6924;52.122;9.952;2023-08-06T08:11:26;1.43;;;1.30;;
13704;SDS011;6924;52.122;9.952;2023-08-06T08:13:54;1.57;;;1.30;;
13704;SDS011;6924;52.122;9.952;2023-08-06T08:16:20;1.50;;;1.40;;
13704;SDS011;6924;52.122;9.952;2023-08-06T08:18:47;1.70;;;1.60;;
13704;SDS011;6924;52.122;9.952;2023-08-06T08:21:13;3.33;;;1.37;;
13704;SDS011;6924;52.122;9.952;2023-08-06T08:23:40;1.43;;;1.33;;
13704;SDS011;6924;52.122;9.952;2023-08-06T08:26:07;1.67;;;1.57;;
13704;SDS011;6924;52.122;9.952;2023-08-06T08:28:33;1.93;;;1.33;;
13704;SDS011;6924;52.122;9.952;2023-08-06T08:31:01;1.80;;;1.70;;
13704;SDS011;6924;52.122;9.952;2023-08-06T08:33:28;2.20;;;1.90;;
13704;SDS011;6924;52.122;9.952;2023-08-06T08:35:54;2.63;;;1.50;;
13704;SDS011;6924;52.122;9.952;2023-08-06T08:38:20;1.43;;;1.20;;
13704;SDS011;6924;52.122;9.952;2023-08-06T08:40:47;2.57;;;1.40;;
13704;SDS011;6924;52.122;9.952;2023-08-06T08:43:20;2.03;;;1.60;;
13704;SDS011;6924;52.122;9.952;2023-08-06T08:45:49;3.00;;;1.60;;
13704;SDS011;6924;52.122;9.952;2023-08-06T08:48:18;1.57;;;1.47;;
13704;SDS011;6924;52.122;9.952;2023-08-06T08:50:46;4.63;;;1.50;;
13704;SDS011;6924;52.122;9.952;2023-08-06T08:53:15;1.57;;;1.47;;
13704;SDS011;6924;52.122;9.952;2023-08-06T08:55:42;2.83;;;1.40;;
13704;SDS011;6924;52.122;9.952;2023-08-06T08:58:09;2.23;;;1.77;;
13704;SDS011;6924;52.122;9.952;2023-08-06T09:00:36;1.60;;;1.50;;
13704;SDS011;6924;52.122;9.952;2023-08-06T09:03:04;1.27;;;1.20;;
13704;SDS011;6924;52.122;9.952;2023-08-06T09:05:33;2.03;;;1.40;;
13704;SDS011;6924;52.122;9.952;2023-08-06T09:08:02;1.63;;;1.53;;
13704;SDS011;6924;52.122;9.952;2023-08-06T09:10:30;1.80;;;1.40;;
13704;SDS011;6924;52.122;9.952;2023-08-06T09:12:57;2.23;;;1.43;;
13704;SDS011;6924;52.122;9.952;2023-08-06T09:15:26;2.00;;;1.90;;
13704;SDS011;6924;52.122;9.952;2023-08-06T09:17:53;1.40;;;1.30;;
13704;SDS011;6924;52.122;9.952;2023-08-06T09:20:20;1.17;;;1.17;;
13704;SDS011;6924;52.122;9.952;2023-08-06T09:22:48;2.00;;;1.37;;
13704;SDS011;6924;52.122;9.952;2023-08-06T09:25:19;1.53;;;1.40;;
13704;SDS011;6924;52.122;9.952;2023-08-06T09:27:48;1.70;;;1.60;;
13704;SDS011;6924;52.122;9.952;2023-08-06T09:30:28;1.70;;;1.60;;
13704;SDS011;6924;52.122;9.952;2023-08-06T09:32:55;1.90;;;1.53;;
13704;SDS011;6924;52.122;9.952;2023-08-06T09:35:22;1.50;;;1.40;;
13704;SDS011;6924;52.122;9.952;2023-08-06T09:37:50;1.67;;;1.57;;
13704;SDS011;6924;52.122;9.952;2023-08-06T09:40:26;1.60;;;1.50;;
13704;SDS011;6924;52.122;9.952;2023-08-06T09:42:53;1.57;;;1.47;;
13704;SDS011;6924;52.122;9.952;2023-08-06T09:45:20;1.70;;;1.20;;
13704;SDS011;6924;52.122;9.952;2023-08-06T09:47:47;1.57;;;1.47;;
13704;SDS011;6924;52.122;9.952;2023-08-06T09:50:15;1.50;;;1.40;;
13704;SDS011;6924;52.122;9.952;2023-08-06T09:52:43;1.80;;;1.60;;
13704;SDS011;6924;52.122;9.952;2023-08-06T09:55:11;2.47;;;1.80;;
13704;SDS011;6924;52.122;9.952;2023-08-06T09:57:39;2.43;;;1.53;;
13704;SDS011;6924;52.122;9.952;2023-08-06T10:00:07;1.50;;;1.40;;
13704;SDS011;6924;52.122;9.952;2023-08-06T10:02:35;3.13;;;1.40;;
13704;SDS011;6924;52.122;9.952;2023-08-06T10:05:03;1.77;;;1.67;;
13704;SDS011;6924;52.122;9.952;2023-08-06T10:07:31;1.60;;;1.47;;
13704;SDS011;6924;52.122;9.952;2023-08-06T10:09:58;1.50;;;1.40;;
13704;SDS011;6924;52.122;9.952;2023-08-06T10:12:26;1.60;;;1.50;;
13704;SDS011;6924;52.122;9.952;2023-08-06T10:14:56;2.07;;;1.57;;
13704;SDS011;6924;52.122;9.952;2023-08-06T10:17:24;1.70;;;1.53;;
13704;SDS011;6924;52.122;9.952;2023-08-06T10:19:52;1.50;;;1.40;;
13704;SDS011;6924;52.122;9.952;2023-08-06T10:22:19;1.60;;;1.50;;
13704;SDS011;6924;52.122;9.952;2023-08-06T10:24:50;2.07;;;1.50;;
13704;SDS011;6924;52.122;9.952;2023-08-06T10:27:20;1.20;;;1.20;;
13704;SDS011;6924;52.122;9.952;2023-08-06T10:29:56;1.23;;;1.13;;
13704;SDS011;6924;52.122;9.952;2023-08-06T10:32:49;1.30;;;1.20;;
13704;SDS011;6924;52.122;9.952;2023-08-06T10:35:29;1.33;;;1.23;;
13704;SDS011;6924;52.122;9.952;2023-08-06T10:37:57;1.57;;;1.30;;
13704;SDS011;6924;52.122;9.952;2023-08-06T10:40:35;2.63;;;1.27;;
13704;SDS011;6924;52.122;9.952;2023-08-06T10:43:03;6.33;;;1.43;;
13704;SDS011;6924;52.122;9.952;2023-08-06T10:45:34;2.77;;;1.60;;
13704;SDS011;6924;52.122;9.952;2023-08-06T10:48:01;1.97;;;1.43;;
13704;SDS011;6924;52.122;9.952;2023-08-06T10:50:27;1.73;;;1.47;;
13704;SDS011;6924;52.122;9.952;2023-08-06T10:52:54;1.40;;;1.30;;
13704;SDS011;6924;52.122;9.952;2023-08-06T10:55:24;1.53;;;1.43;;
13704;SDS011;6924;52.122;9.952;2023-08-06T10:57:51;1.40;;;1.30;;
13704;SDS011;6924;52.122;9.952;2023-08-06T11:00:20;1.87;;;1.77;;
13704;SDS011;6924;52.122;9.952;2023-08-06T11:02:47;1.50;;;1.40;;
13704;SDS011;6924;52.122;9.952;2023-08-06T11:05:14;1.50;;;1.40;;
13704;SDS011;6924;52.122;9.952;2023-08-06T11:07:41;1.50;;;1.40;;
13704;SDS011;6924;52.122;9.952;2023-08-06T11:10:08;1.60;;;1.50;;
13704;SDS011;6924;52.122;9.952;2023-08-06T11:12:36;1.97;;;1.70;;
13704;SDS011;6924;52.122;9.952;2023-08-06T11:15:04;1.63;;;1.37;;
13704;SDS011;6924;52.122;9.952;2023-08-06T11:17:33;3.23;;;1.73;;
13704;SDS011;6924;52.122;9.952;2023-08-06T11:20:01;1.43;;;1.33;;
13704;SDS011;6924;52.122;9.952;2023-08-06T11:22:28;1.67;;;1.57;;
13704;SDS011;6924;52.122;9.952;2023-08-06T11:24:55;1.50;;;1.40;;
13704;SDS011;6924;52.122;9.952;2023-08-06T11:27:21;1.70;;;1.60;;
13704;SDS011;6924;52.122;9.952;2023-08-06T11:29:48;2.57;;;1.87;;
13704;SDS011;6924;52.122;9.952;2023-08-06T11:32:14;1.67;;;1.57;;
13704;SDS011;6924;52.122;9.952;2023-08-06T11:34:42;1.30;;;1.20;;
13704;SDS011;6924;52.122;9.952;2023-08-06T11:37:09;2.23;;;1.50;;
13704;SDS011;6924;52.122;9.952;2023-08-06T11:39:36;1.30;;;1.20;;
13704;SDS011;6924;52.122;9.952;2023-08-06T11:42:03;1.57;;;1.47;;
13704;SDS011;6924;52.122;9.952;2023-08-06T11:44:31;2.00;;;1.30;;
13704;SDS011;6924;52.122;9.952;2023-08-06T11:46:59;1.50;;;1.40;;
13704;SDS011;6924;52.122;9.952;2023-08-06T11:49:40;1.30;;;1.20;;
13704;SDS011;6924;52.122;9.952;2023-08-06T11:52:10;13.00;;;1.30;;
13704;SDS011;6924;52.122;9.952;2023-08-06T11:54:43;1.33;;;1.23;;
13704;SDS011;6924;52.122;9.952;2023-08-06T11:57:10;1.37;;;1.20;;
13704;SDS011;6924;52.122;9.952;2023-08-06T11:59:37;1.30;;;1.20;;
13704;SDS011;6924;52.122;9.952;2023-08-06T12:02:05;1.70;;;1.30;;
13704;SDS011;6924;52.122;9.952;2023-08-06T12:07:31;1.43;;;0.90;;
13704;SDS011;6924;52.122;9.952;2023-08-06T12:09:58;1.10;;;1.10;;
13704;SDS011;6924;52.122;9.952;2023-08-06T12:12:25;1.50;;;1.40;;
13704;SDS011;6924;52.122;9.952;2023-08-06T12:14:51;1.13;;;1.00;;
13704;SDS011;6924;52.122;9.952;2023-08-06T12:17:18;1.17;;;1.07;;
13704;SDS011;6924;52.122;9.952;2023-08-06T12:19:45;1.20;;;1.17;;
13704;SDS011;6924;52.122;9.952;2023-08-06T12:22:14;1.20;;;1.10;;
13704;SDS011;6924;52.122;9.952;2023-08-06T12:24:41;1.20;;;1.10;;
13704;SDS011;6924;52.122;9.952;2023-08-06T12:27:08;1.37;;;0.90;;
13704;SDS011;6924;52.122;9.952;2023-08-06T12:29:34;0.90;;;0.90;;
13704;SDS011;6924;52.122;9.952;2023-08-06T12:32:01;3.53;;;1.00;;
13704;SDS011;6924;52.122;9.952;2023-08-06T12:34:28;1.43;;;1.33;;
13704;SDS011;6924;52.122;9.952;2023-08-06T12:36:54;1.07;;;0.97;;
13704;SDS011;6924;52.122;9.952;2023-08-06T12:39:22;1.70;;;1.10;;
13704;SDS011;6924;52.122;9.952;2023-08-06T12:41:49;2.30;;;1.17;;
13704;SDS011;6924;52.122;9.952;2023-08-06T12:44:15;1.70;;;1.10;;
13704;SDS011;6924;52.122;9.952;2023-08-06T12:46:42;3.03;;;0.97;;
13704;SDS011;6924;52.122;9.952;2023-08-06T12:49:08;0.80;;;0.80;;
13704;SDS011;6924;52.122;9.952;2023-08-06T12:51:35;0.83;;;0.80;;
13704;SDS011;6924;52.122;9.952;2023-08-06T12:54:01;0.90;;;0.90;;
13704;SDS011;6924;52.122;9.952;2023-08-06T12:56:29;0.90;;;0.83;;
13704;SDS011;6924;52.122;9.952;2023-08-06T12:58:55;1.20;;;1.10;;
13704;SDS011;6924;52.122;9.952;2023-08-06T13:01:22;1.60;;;0.80;;
13704;SDS011;6924;52.122;9.952;2023-08-06T13:03:48;1.43;;;0.90;;
13704;SDS011;6924;52.122;9.952;2023-08-06T13:06:15;0.80;;;0.77;;
13704;SDS011;6924;52.122;9.952;2023-08-06T13:08:41;1.00;;;0.90;;
13704;SDS011;6924;52.122;9.952;2023-08-06T13:11:08;0.93;;;0.80;;
13704;SDS011;6924;52.122;9.952;2023-08-06T13:13:36;0.80;;;0.80;;
13704;SDS011;6924;52.122;9.952;2023-08-06T13:16:03;0.97;;;0.97;;
13704;SDS011;6924;52.122;9.952;2023-08-06T13:18:30;0.90;;;0.90;;
13704;SDS011;6924;52.122;9.952;2023-08-06T13:20:56;1.00;;;1.00;;
13704;SDS011;6924;52.122;9.952;2023-08-06T13:23:23;1.33;;;1.03;;
13704;SDS011;6924;52.122;9.952;2023-08-06T13:25:49;0.87;;;0.83;;
13704;SDS011;6924;52.122;9.952;2023-08-06T13:28:16;1.10;;;1.00;;
13704;SDS011;6924;52.122;9.952;2023-08-06T13:30:43;1.13;;;1.00;;
13704;SDS011;6924;52.122;9.952;2023-08-06T13:33:10;1.00;;;0.90;;
13704;SDS011;6924;52.122;9.952;2023-08-06T13:35:37;1.20;;;1.10;;
13704;SDS011;6924;52.122;9.952;2023-08-06T13:38:04;1.43;;;1.20;;
13704;SDS011;6924;52.122;9.952;2023-08-06T13:40:32;1.57;;;1.30;;
13704;SDS011;6924;52.122;9.952;2023-08-06T13:42:59;1.40;;;0.90;;
13704;SDS011;6924;52.122;9.952;2023-08-06T13:45:26;1.20;;;1.10;;
13704;SDS011;6924;52.122;9.952;2023-08-06T13:47:54;1.40;;;1.30;;
13704;SDS011;6924;52.122;9.952;2023-08-06T13:50:21;2.00;;;1.10;;
13704;SDS011;6924;52.122;9.952;2023-08-06T13:52:50;1.10;;;1.00;;
13704;SDS011;6924;52.122;9.952;2023-08-06T13:55:18;1.53;;;1.20;;
13704;SDS011;6924;52.122;9.952;2023-08-06T13:57:44;1.23;;;1.13;;
13704;SDS011;6924;52.122;9.952;2023-08-06T14:00:11;1.50;;;1.40;;
13704;SDS011;6924;52.122;9.952;2023-08-06T14:02:38;2.07;;;1.37;;
13704;SDS011;6924;52.122;9.952;2023-08-06T14:05:06;1.13;;;1.13;;
13704;SDS011;6924;52.122;9.952;2023-08-06T14:07:33;1.63;;;1.53;;
13704;SDS011;6924;52.122;9.952;2023-08-06T14:10:00;1.33;;;1.23;;
13704;SDS011;6924;52.122;9.952;2023-08-06T14:12:26;1.07;;;1.07;;
13704;SDS011;6924;52.122;9.952;2023-08-06T14:14:53;1.40;;;1.30;;
13704;SDS011;6924;52.122;9.952;2023-08-06T14:17:19;1.43;;;1.33;;
13704;SDS011;6924;52.122;9.952;2023-08-06T14:19:46;1.97;;;1.60;;
13704;SDS011;6924;52.122;9.952;2023-08-06T14:22:13;1.47;;;1.37;;
13704;SDS011;6924;52.122;9.952;2023-08-06T14:24:40;1.97;;;1.30;;
13704;SDS011;6924;52.122;9.952;2023-08-06T14:27:07;1.53;;;1.43;;
13704;SDS011;6924;52.122;9.952;2023-08-06T14:29:33;1.30;;;1.20;;
13704;SDS011;6924;52.122;9.952;2023-08-06T14:31:59;2.10;;;1.60;;
13704;SDS011;6924;52.122;9.952;2023-08-06T14:34:26;1.23;;;1.20;;
13704;SDS011;6924;52.122;9.952;2023-08-06T14:36:52;1.43;;;1.33;;
13704;SDS011;6924;52.122;9.952;2023-08-06T14:39:20;1.40;;;1.30;;
13704;SDS011;6924;52.122;9.952;2023-08-06T14:41:47;1.20;;;1.10;;
13704;SDS011;6924;52.122;9.952;2023-08-06T14:44:13;1.47;;;1.17;;
13704;SDS011;6924;52.122;9.952;2023-08-06T14:46:40;1.00;;;1.00;;
13704;SDS011;6924;52.122;9.952;2023-08-06T14:49:06;1.53;;;1.43;;
13704;SDS011;6924;52.122;9.952;2023-08-06T14:51:33;1.80;;;1.60;;
13704;SDS011;6924;52.122;9.952;2023-08-06T14:53:59;2.20;;;1.93;;
13704;SDS011;6924;52.122;9.952;2023-08-06T14:56:27;1.43;;;1.30;;
13704;SDS011;6924;52.122;9.952;2023-08-06T14:58:54;1.40;;;1.17;;
13704;SDS011;6924;52.122;9.952;2023-08-06T15:01:21;0.90;;;0.73;;
13704;SDS011;6924;52.122;9.952;2023-08-06T15:03:47;0.93;;;0.93;;